Time;durP1;ratioP1;P1;durP2;ratioP2;P2;SDS_P1;SDS_P2;PMS_P1;PMS_P2;Temp;Humidity;BMP_temperature;BMP_pressure;BME280_temperature;BME280_humidity;BME280_pressure;Samples;Min_cycle;Max_cycle;Signal;HPM_P1;HPM_P2
2022/01/06 00:00:15;;;;;;;3.80;1.80;;;3.60;99.90;;;;;;4938159;29;20259;-87
2022/01/06 00:02:42;;;;;;;2.70;1.80;;;3.60;99.90;;;;;;4937524;29;20674;-85
2022/01/06 00:05:09;;;;;;;5.03;2.20;;;3.60;99.90;;;;;;4938076;29;20275;-86
2022/01/06 00:07:37;;;;;;;4.43;2.03;;;3.70;99.90;;;;;;4938000;29;20255;-86
2022/01/06 00:10:06;;;;;;;3.47;1.80;;;3.60;99.90;;;;;;4937661;29;20760;-86
2022/01/06 00:12:40;;;;;;;4.03;2.10;;;3.70;99.90;;;;;;4937879;29;20606;-85
2022/01/06 00:15:23;;;;;;;6.57;2.13;;;3.70;99.90;;;;;;4937990;29;20200;-86
2022/01/06 00:18:12;;;;;;;4.93;2.20;;;3.70;99.90;;;;;;4937962;29;20189;-87
2022/01/06 00:23:29;;;;;;;3.87;2.10;;;3.70;99.90;;;;;;4937555;29;20184;-87
2022/01/06 00:25:58;;;;;;;3.20;2.30;;;3.70;99.90;;;;;;4937816;29;20181;-87
2022/01/06 00:28:26;;;;;;;3.17;2.30;;;3.70;99.90;;;;;;4937027;29;20575;-85
2022/01/06 00:30:54;;;;;;;5.77;2.33;;;3.70;99.90;;;;;;4937287;29;20205;-87
2022/01/06 00:33:21;;;;;;;3.30;2.10;;;3.70;99.90;;;;;;4936614;29;20613;-87
2022/01/06 00:35:49;;;;;;;4.03;2.20;;;3.70;99.90;;;;;;4937338;29;20247;-86
2022/01/06 00:38:16;;;;;;;3.60;2.20;;;3.70;99.90;;;;;;4937450;29;20205;-88
2022/01/06 00:40:43;;;;;;;6.10;2.10;;;3.70;99.90;;;;;;4937068;29;20208;-87
2022/01/06 00:43:11;;;;;;;5.00;2.20;;;3.70;99.90;;;;;;4937481;29;20200;-85
2022/01/06 00:45:40;;;;;;;4.10;2.23;;;3.70;99.90;;;;;;4936960;29;20197;-87
2022/01/06 00:48:09;;;;;;;6.53;2.30;;;3.60;99.90;;;;;;4937407;29;20241;-85
2022/01/06 00:50:37;;;;;;;5.33;2.43;;;3.60;99.90;;;;;;4937324;29;20206;-86
2022/01/06 00:53:04;;;;;;;5.13;2.07;;;3.60;99.90;;;;;;4937216;29;20200;-87
2022/01/06 00:55:32;;;;;;;4.67;2.13;;;3.60;99.90;;;;;;4937342;29;20192;-86
2022/01/06 00:57:59;;;;;;;6.40;2.40;;;3.60;99.90;;;;;;4937051;29;20236;-87
2022/01/06 01:00:31;;;;;;;4.47;2.40;;;3.60;99.90;;;;;;4936984;29;20269;-86
2022/01/06 01:02:59;;;;;;;3.60;2.23;;;3.60;99.90;;;;;;4936829;29;20269;-87
2022/01/06 01:05:26;;;;;;;8.10;2.37;;;3.50;99.90;;;;;;4936622;29;20196;-86
2022/01/06 01:07:53;;;;;;;3.13;2.07;;;3.50;99.90;;;;;;4936163;29;20200;-87
2022/01/06 01:10:20;;;;;;;5.63;2.07;;;3.50;99.90;;;;;;4936958;29;20259;-88
2022/01/06 01:12:48;;;;;;;4.13;2.40;;;3.50;99.90;;;;;;4936790;29;20192;-86
2022/01/06 01:15:19;;;;;;;4.63;2.33;;;3.50;99.90;;;;;;4936798;29;20651;-87
2022/01/06 01:17:48;;;;;;;6.33;2.40;;;3.50;99.90;;;;;;4935781;29;20193;-84
2022/01/06 01:20:17;;;;;;;6.00;2.53;;;3.50;99.90;;;;;;4936724;29;20335;-84
2022/01/06 01:22:45;;;;;;;5.73;2.37;;;3.50;99.90;;;;;;4936705;29;20247;-84
2022/01/06 01:35:38;;;;;;;3.80;1.70;;;3.40;99.90;;;;;;4918127;29;20216;-88
2022/01/06 01:44:52;;;;;;;3.83;1.50;;;3.10;99.90;;;;;;4940845;28;20209;-90
2022/01/06 02:00:51;;;;;;;5.87;1.40;;;2.80;99.90;;;;;;4916843;29;20248;-88
2022/01/06 02:14:06;;;;;;;5.60;1.20;;;2.60;99.90;;;;;;4877001;29;20236;-88
2022/01/06 02:24:07;;;;;;;7.00;1.47;;;2.50;99.90;;;;;;4845559;29;20189;-88
2022/01/06 02:36:25;;;;;;;3.53;1.37;;;2.50;99.90;;;;;;4901321;29;20259;-88
2022/01/06 02:39:43;;;;;;;6.00;1.57;;;2.50;99.90;;;;;;4845204;29;20240;-88
2022/01/06 02:42:11;;;;;;;2.77;1.20;;;2.50;99.90;;;;;;4850918;29;20208;-85
2022/01/06 02:44:39;;;;;;;4.77;1.37;;;2.50;99.90;;;;;;4839760;29;20199;-85
2022/01/06 02:47:07;;;;;;;5.43;1.30;;;2.50;99.90;;;;;;4865829;29;20742;-84
2022/01/06 02:49:34;;;;;;;5.80;1.33;;;2.50;99.90;;;;;;4883889;29;20250;-84
2022/01/06 02:52:03;;;;;;;4.43;1.30;;;2.50;99.90;;;;;;4897440;29;20289;-85
2022/01/06 02:54:30;;;;;;;4.40;1.23;;;2.50;99.90;;;;;;4901216;29;20197;-85
2022/01/06 02:56:57;;;;;;;3.03;1.20;;;2.50;99.90;;;;;;4901630;29;20181;-85
2022/01/06 02:59:25;;;;;;;4.23;1.30;;;2.50;99.90;;;;;;4901338;29;20193;-84
2022/01/06 03:01:52;;;;;;;5.87;1.30;;;2.50;99.90;;;;;;4901505;29;20249;-84
2022/01/06 03:04:20;;;;;;;3.93;1.37;;;2.50;99.90;;;;;;4953157;28;20601;-85
2022/01/06 03:06:47;;;;;;;6.07;1.17;;;2.50;99.90;;;;;;4960608;28;20203;-85
2022/01/06 03:09:24;;;;;;;4.10;1.10;;;2.40;99.90;;;;;;4960405;29;20720;-85
2022/01/06 03:11:53;;;;;;;3.97;1.20;;;2.40;99.90;;;;;;4960489;29;20266;-85
2022/01/06 03:14:20;;;;;;;2.93;1.37;;;2.40;99.90;;;;;;4960578;28;20200;-85
2022/01/06 03:16:47;;;;;;;4.40;1.20;;;2.40;99.90;;;;;;4960633;29;20204;-85
2022/01/06 03:19:14;;;;;;;5.07;1.30;;;2.40;99.90;;;;;;4960593;29;20284;-84
2022/01/06 03:21:41;;;;;;;5.27;1.30;;;2.40;99.90;;;;;;4960617;29;20626;-86
2022/01/06 03:24:08;;;;;;;6.97;1.37;;;2.40;99.90;;;;;;4960791;29;20197;-86
2022/01/06 03:26:36;;;;;;;4.10;1.00;;;2.40;99.90;;;;;;4960636;28;20258;-85
2022/01/06 03:29:03;;;;;;;5.77;1.47;;;2.30;99.90;;;;;;4960209;29;20629;-85
2022/01/06 03:31:30;;;;;;;2.63;1.20;;;2.30;99.90;;;;;;4960143;29;20738;-86
2022/01/06 03:33:57;;;;;;;4.23;1.30;;;2.30;99.90;;;;;;4960663;28;20595;-84
2022/01/06 03:36:24;;;;;;;2.33;1.00;;;2.30;99.90;;;;;;4960448;29;20244;-85
2022/01/06 03:38:51;;;;;;;2.33;1.00;;;2.30;99.90;;;;;;4960594;29;20207;-84
2022/01/06 03:41:18;;;;;;;4.23;1.50;;;2.30;99.90;;;;;;4959985;28;20290;-84
2022/01/06 03:43:47;;;;;;;6.90;1.30;;;2.30;99.90;;;;;;4960414;28;20196;-85
2022/01/06 03:46:14;;;;;;;1.97;1.10;;;2.20;99.90;;;;;;4960255;29;20658;-84
2022/01/06 03:48:41;;;;;;;2.93;1.30;;;2.20;99.90;;;;;;4960627;29;20197;-85
2022/01/06 03:51:08;;;;;;;2.40;1.20;;;2.20;99.90;;;;;;4959988;29;20632;-84
2022/01/06 03:53:35;;;;;;;4.47;1.67;;;2.10;99.90;;;;;;4960330;29;20614;-85
2022/01/06 03:56:02;;;;;;;3.07;1.50;;;2.10;99.90;;;;;;4960000;28;20674;-85
2022/01/06 03:58:29;;;;;;;3.70;1.53;;;2.00;99.90;;;;;;4960438;29;20266;-87
2022/01/06 04:00:57;;;;;;;3.53;1.43;;;2.00;99.90;;;;;;4960255;29;20353;-85
2022/01/06 04:03:24;;;;;;;3.30;1.23;;;2.00;99.90;;;;;;4958597;28;20197;-84
2022/01/06 04:05:51;;;;;;;5.03;1.30;;;1.90;99.90;;;;;;4957319;29;20196;-85
2022/01/06 04:08:18;;;;;;;2.30;1.40;;;1.80;99.90;;;;;;4956805;29;20200;-84
2022/01/06 04:10:45;;;;;;;3.30;1.60;;;1.80;99.90;;;;;;4956794;29;20196;-84
2022/01/06 04:13:12;;;;;;;4.60;1.70;;;1.70;99.90;;;;;;4957332;29;20204;-84
2022/01/06 04:15:39;;;;;;;4.20;1.50;;;1.70;99.90;;;;;;4956832;29;20196;-85
2022/01/06 04:18:08;;;;;;;5.20;1.87;;;1.70;99.90;;;;;;4956637;29;20199;-86
2022/01/06 04:20:35;;;;;;;3.57;1.90;;;1.60;99.90;;;;;;4956728;29;20219;-84
2022/01/06 04:23:02;;;;;;;3.87;1.77;;;1.60;99.90;;;;;;4956977;29;20200;-86
2022/01/06 04:25:29;;;;;;;5.33;2.00;;;1.60;99.90;;;;;;4956989;29;20204;-84
2022/01/06 04:27:56;;;;;;;3.37;1.70;;;1.60;99.90;;;;;;4956853;29;20200;-86
2022/01/06 04:30:23;;;;;;;4.73;2.50;;;1.60;99.90;;;;;;4956846;29;20199;-84
2022/01/06 04:32:50;;;;;;;6.47;2.10;;;1.50;99.90;;;;;;4956494;29;20252;-85
2022/01/06 04:35:18;;;;;;;5.03;2.20;;;1.50;99.90;;;;;;4956941;29;20329;-86
2022/01/06 04:37:45;;;;;;;3.60;2.20;;;1.50;99.90;;;;;;4956783;29;20613;-85
2022/01/06 04:40:12;;;;;;;5.37;2.50;;;1.50;99.90;;;;;;4955716;28;20674;-84
2022/01/06 04:42:39;;;;;;;3.43;2.60;;;1.50;99.90;;;;;;4937101;29;20193;-85
2022/01/06 04:45:08;;;;;;;4.13;2.20;;;1.50;99.90;;;;;;4937368;29;20248;-84
2022/01/06 04:47:35;;;;;;;2.57;1.87;;;1.50;99.90;;;;;;4936988;29;20535;-84
2022/01/06 04:50:02;;;;;;;3.93;2.20;;;1.50;99.90;;;;;;4951252;29;20196;-85
2022/01/06 04:52:30;;;;;;;2.07;1.57;;;1.50;99.90;;;;;;4956083;29;20243;-84
2022/01/06 04:54:57;;;;;;;3.17;1.50;;;1.50;99.90;;;;;;4956368;29;20200;-85
2022/01/06 04:57:24;;;;;;;3.83;1.60;;;1.50;99.90;;;;;;4956364;29;20196;-85
2022/01/06 04:59:51;;;;;;;3.63;1.50;;;1.50;99.90;;;;;;4956310;29;20199;-85
2022/01/06 05:02:18;;;;;;;6.30;1.50;;;1.50;99.90;;;;;;4956094;29;20654;-85
2022/01/06 05:04:45;;;;;;;1.70;1.30;;;1.40;99.90;;;;;;4956240;29;20196;-84
2022/01/06 05:07:12;;;;;;;3.17;1.33;;;1.40;99.90;;;;;;4956063;29;20291;-85
2022/01/06 05:09:41;;;;;;;3.10;1.20;;;1.40;99.90;;;;;;4955831;29;20662;-85
2022/01/06 05:12:08;;;;;;;2.13;1.00;;;1.40;99.90;;;;;;4955210;29;20196;-84
2022/01/06 05:14:35;;;;;;;2.20;1.20;;;1.40;99.90;;;;;;4955310;28;20559;-84
2022/01/06 05:17:02;;;;;;;2.27;1.00;;;1.30;99.90;;;;;;4955127;29;20271;-84
2022/01/06 05:19:29;;;;;;;1.57;1.30;;;1.30;99.90;;;;;;4955550;29;20657;-84
2022/01/06 05:21:58;;;;;;;2.47;1.10;;;1.20;99.90;;;;;;4955383;29;20215;-84
2022/01/06 05:24:25;;;;;;;2.30;0.70;;;1.20;99.90;;;;;;4955798;29;20527;-84
2022/01/06 05:26:55;;;;;;;2.23;1.20;;;1.20;99.90;;;;;;4955425;29;20196;-84
2022/01/06 05:29:23;;;;;;;1.30;0.70;;;1.10;99.90;;;;;;4955826;29;20294;-85
2022/01/06 05:31:50;;;;;;;1.87;0.90;;;1.10;99.90;;;;;;4955886;29;20200;-84
2022/01/06 05:34:17;;;;;;;1.60;0.63;;;1.10;99.90;;;;;;4955527;29;20200;-84
2022/01/06 05:36:44;;;;;;;1.60;0.73;;;1.00;99.90;;;;;;4955240;29;20251;-84
2022/01/06 05:39:11;;;;;;;1.83;0.90;;;1.00;99.90;;;;;;4955775;29;20227;-84
2022/01/06 05:41:38;;;;;;;3.97;0.90;;;1.00;99.90;;;;;;4954726;29;20228;-84
2022/01/06 05:44:06;;;;;;;1.40;0.80;;;1.00;99.90;;;;;;4955336;29;20204;-84
2022/01/06 05:46:33;;;;;;;2.70;1.00;;;0.90;99.90;;;;;;4955442;29;20203;-84
2022/01/06 05:49:00;;;;;;;1.10;0.80;;;0.80;99.90;;;;;;4955374;29;20199;-84
2022/01/06 05:51:27;;;;;;;1.83;0.73;;;0.70;99.90;;;;;;4955422;29;20204;-84
2022/01/06 05:53:54;;;;;;;2.07;1.17;;;0.70;99.90;;;;;;4955194;29;20233;-83
2022/01/06 05:56:21;;;;;;;2.20;1.20;;;0.60;99.90;;;;;;4954900;29;20200;-84
2022/01/06 05:58:48;;;;;;;2.90;1.33;;;0.50;99.90;;;;;;4955455;29;20204;-84
2022/01/06 06:01:17;;;;;;;2.67;0.90;;;0.50;99.90;;;;;;4955080;29;20207;-84
2022/01/06 06:03:44;;;;;;;1.50;0.87;;;0.40;99.90;;;;;;4954865;29;20243;-83
2022/01/06 06:06:11;;;;;;;2.47;1.10;;;0.30;99.90;;;;;;4955081;29;20199;-84
2022/01/06 06:08:38;;;;;;;2.83;0.93;;;0.30;99.90;;;;;;4954988;29;20200;-84
2022/01/06 06:11:05;;;;;;;3.67;1.00;;;0.20;99.90;;;;;;4954680;29;20196;-85
2022/01/06 06:13:32;;;;;;;1.50;1.00;;;0.20;99.90;;;;;;4954642;29;20200;-85
2022/01/06 06:15:58;;;;;;;1.60;0.90;;;0.10;99.90;;;;;;4954846;29;20203;-86
2022/01/06 06:18:27;;;;;;;1.47;0.90;;;0.10;99.90;;;;;;4954887;29;20247;-86
2022/01/06 06:20:54;;;;;;;1.23;0.87;;;0.00;99.90;;;;;;4954433;29;20248;-85
2022/01/06 06:23:21;;;;;;;0.93;0.80;;;0.00;99.90;;;;;;4954689;29;20235;-86
2022/01/06 06:25:48;;;;;;;2.23;0.87;;;-0.10;99.90;;;;;;4955018;29;20196;-86
2022/01/06 06:28:15;;;;;;;3.60;1.00;;;-0.10;99.90;;;;;;4954368;28;20196;-85
2022/01/06 06:30:42;;;;;;;2.20;0.97;;;-0.20;99.90;;;;;;4954647;29;20203;-85
2022/01/06 06:33:09;;;;;;;1.73;0.90;;;-0.20;99.90;;;;;;4954603;29;20259;-85
2022/01/06 06:35:38;;;;;;;2.30;0.80;;;-0.10;99.90;;;;;;4954391;29;20609;-85
2022/01/06 06:38:05;;;;;;;0.73;0.73;;;-0.10;99.90;;;;;;4954605;29;20195;-86
2022/01/06 06:40:32;;;;;;;2.00;0.90;;;-0.10;99.90;;;;;;4953825;29;20287;-85
2022/01/06 06:43:00;;;;;;;3.70;1.00;;;-0.10;99.90;;;;;;4954470;29;20255;-85
2022/01/06 06:45:27;;;;;;;1.80;0.83;;;-0.10;99.90;;;;;;4954906;29;20521;-85
2022/01/06 06:47:54;;;;;;;1.70;0.90;;;-0.10;99.90;;;;;;4954440;29;20199;-85
2022/01/06 06:50:23;;;;;;;1.97;1.00;;;-0.10;99.90;;;;;;4954107;29;20250;-85
2022/01/06 06:52:51;;;;;;;2.93;0.80;;;-0.10;99.90;;;;;;4954688;29;20618;-86
2022/01/06 06:55:18;;;;;;;1.70;0.93;;;0.00;99.90;;;;;;4954413;29;20200;-85
2022/01/06 06:57:45;;;;;;;2.57;0.73;;;0.00;99.90;;;;;;4954218;29;20192;-85
2022/01/06 07:00:13;;;;;;;1.47;0.90;;;0.10;99.90;;;;;;4954130;29;20658;-85
2022/01/06 07:02:41;;;;;;;1.17;0.67;;;0.10;99.90;;;;;;4953909;29;20694;-85
2022/01/06 07:05:09;;;;;;;2.03;0.80;;;0.20;99.90;;;;;;4954402;29;20250;-85
2022/01/06 07:07:36;;;;;;;2.00;0.90;;;0.20;99.90;;;;;;4954319;29;20200;-85
2022/01/06 07:10:05;;;;;;;2.07;0.70;;;0.20;99.90;;;;;;4953548;29;20251;-84
2022/01/06 07:12:33;;;;;;;2.30;1.00;;;0.30;99.90;;;;;;4953933;29;20204;-85
2022/01/06 07:15:02;;;;;;;2.60;1.20;;;0.30;99.90;;;;;;4954330;29;20287;-86
2022/01/06 07:17:29;;;;;;;5.73;2.57;;;0.30;99.90;;;;;;4954391;29;20203;-85
2022/01/06 07:19:56;;;;;;;3.20;1.50;;;0.30;99.90;;;;;;4953814;29;20239;-85
2022/01/06 07:22:23;;;;;;;2.90;1.53;;;0.40;99.90;;;;;;4954352;29;20635;-86
2022/01/06 07:24:50;;;;;;;3.30;1.70;;;0.40;99.90;;;;;;4954194;29;20251;-86
2022/01/06 07:27:18;;;;;;;4.33;2.00;;;0.40;99.90;;;;;;4954165;29;20200;-86
2022/01/06 07:29:46;;;;;;;11.77;4.80;;;0.40;99.90;;;;;;4954181;29;20275;-85
2022/01/06 07:32:13;;;;;;;13.70;5.27;;;0.50;99.90;;;;;;4953778;29;20204;-85
2022/01/06 07:34:39;;;;;;;8.43;2.80;;;0.50;99.90;;;;;;4953994;29;20196;-85
2022/01/06 07:37:06;;;;;;;3.77;1.70;;;0.50;99.90;;;;;;4954069;29;20196;-85
2022/01/06 07:39:34;;;;;;;4.47;1.90;;;0.50;99.90;;;;;;4955772;28;20200;-85
2022/01/06 07:42:01;;;;;;;6.23;2.50;;;0.50;99.90;;;;;;4956316;29;20219;-85
2022/01/06 07:44:29;;;;;;;5.23;2.33;;;0.60;99.90;;;;;;4957685;29;20196;-85
2022/01/06 07:46:56;;;;;;;10.70;3.60;;;0.60;99.90;;;;;;4965767;29;20200;-85
2022/01/06 07:49:23;;;;;;;6.43;2.13;;;0.60;99.90;;;;;;4964271;29;20180;-85
2022/01/06 07:51:50;;;;;;;4.43;1.80;;;0.60;99.90;;;;;;4959588;29;20230;-88
2022/01/06 07:54:18;;;;;;;6.83;3.40;;;0.60;99.90;;;;;;4961060;29;20630;-84
2022/01/06 07:56:45;;;;;;;6.07;2.77;;;0.60;99.90;;;;;;4962345;29;20203;-86
2022/01/06 07:59:11;;;;;;;20.63;5.67;;;0.60;99.90;;;;;;4965461;29;20618;-85
2022/01/06 08:01:40;;;;;;;20.67;6.97;;;0.50;99.90;;;;;;4962745;29;20271;-85
2022/01/06 08:04:08;;;;;;;13.97;5.07;;;0.60;99.90;;;;;;4961417;29;20721;-85
2022/01/06 08:06:35;;;;;;;14.30;5.00;;;0.60;99.90;;;;;;4964153;29;20553;-87
2022/01/06 08:09:02;;;;;;;11.27;4.37;;;0.60;99.90;;;;;;4963695;29;20198;-86
2022/01/06 08:11:42;;;;;;;13.40;3.87;;;0.60;99.90;;;;;;4961676;28;20236;-89
2022/01/06 08:17:05;;;;;;;18.57;5.77;;;0.60;99.90;;;;;;4957646;29;20206;-87
2022/01/06 08:19:47;;;;;;;12.87;4.30;;;0.60;99.90;;;;;;4973370;29;20196;-89
2022/01/06 08:22:14;;;;;;;27.17;8.23;;;0.60;99.90;;;;;;4963420;29;20266;-84
2022/01/06 08:24:52;;;;;;;26.50;7.77;;;0.60;99.90;;;;;;4957283;29;20195;-84
2022/01/06 08:27:19;;;;;;;13.77;4.00;;;0.60;99.90;;;;;;4961924;29;20192;-84
2022/01/06 08:29:51;;;;;;;15.67;4.03;;;0.70;99.90;;;;;;4961252;29;20199;-88
2022/01/06 08:32:28;;;;;;;27.50;9.47;;;0.80;99.90;;;;;;4964397;29;20669;-86
2022/01/06 08:34:55;;;;;;;24.60;8.53;;;0.80;99.90;;;;;;4962491;29;20197;-84
2022/01/06 08:37:22;;;;;;;32.20;9.40;;;0.80;99.90;;;;;;4960068;29;20204;-85
2022/01/06 08:39:51;;;;;;;75.40;20.23;;;0.80;99.90;;;;;;4963719;28;20254;-84
2022/01/06 08:42:18;;;;;;;79.93;22.17;;;0.80;99.90;;;;;;4961684;29;20240;-85
2022/01/06 08:44:48;;;;;;;78.37;23.27;;;0.80;99.90;;;;;;4964245;29;20223;-88
2022/01/06 08:47:15;;;;;;;46.57;15.27;;;0.80;99.90;;;;;;4942579;29;20200;-85
2022/01/06 08:49:44;;;;;;;48.13;14.90;;;0.80;99.90;;;;;;4956312;28;20186;-86
2022/01/06 08:52:11;;;;;;;66.40;20.60;;;0.80;99.90;;;;;;4961970;29;20643;-87
2022/01/06 08:54:39;;;;;;;54.20;18.97;;;0.80;99.90;;;;;;4964277;29;20156;-85
2022/01/06 08:57:32;;;;;;;100.50;27.97;;;0.80;99.90;;;;;;4971511;29;20200;-89
2022/01/06 08:59:59;;;;;;;53.70;16.57;;;0.90;99.90;;;;;;4967779;29;20176;-87
2022/01/06 09:02:40;;;;;;;40.83;11.90;;;0.80;99.90;;;;;;4970533;29;20239;-87
2022/01/06 09:05:18;;;;;;;11.30;4.77;;;0.90;99.90;;;;;;4960500;29;20195;-84
2022/01/06 09:07:54;;;;;;;25.33;8.27;;;0.90;99.90;;;;;;4963753;29;20250;-88
2022/01/06 09:10:29;;;;;;;32.60;9.50;;;0.90;99.90;;;;;;4963161;29;20222;-90
2022/01/06 09:12:59;;;;;;;18.70;5.70;;;0.90;99.90;;;;;;4965578;29;20180;-89
2022/01/06 09:15:27;;;;;;;11.27;4.23;;;0.90;99.90;;;;;;4959690;29;20196;-85
2022/01/06 09:17:57;;;;;;;17.93;6.13;;;0.90;99.90;;;;;;4960298;29;20202;-84
2022/01/06 09:20:36;;;;;;;21.23;7.20;;;1.00;99.90;;;;;;4964478;28;20581;-84
2022/01/06 09:23:17;;;;;;;17.77;5.57;;;1.00;99.90;;;;;;4965939;29;20220;-87
2022/01/06 09:25:45;;;;;;;41.90;10.50;;;1.00;99.90;;;;;;4959333;29;20188;-86
2022/01/06 09:28:21;;;;;;;12.77;4.40;;;1.00;99.90;;;;;;4963977;29;20204;-90
2022/01/06 10:28:43;;;;;;;8.90;5.00;;;1.70;99.90;;;;;;4940555;29;20189;-87
2022/01/06 10:31:40;;;;;;;16.53;8.70;;;1.60;99.90;;;;;;4958814;28;20196;-91
2022/01/06 10:34:23;;;;;;;34.60;18.17;;;1.60;99.90;;;;;;4900793;29;20186;-87
2022/01/06 10:39:49;;;;;;;20.93;9.40;;;1.50;99.90;;;;;;4957131;29;20216;-89
2022/01/06 10:42:17;;;;;;;24.93;11.80;;;1.50;99.90;;;;;;4955902;29;20223;-86
2022/01/06 10:44:50;;;;;;;18.90;7.87;;;1.40;99.90;;;;;;4939679;29;20668;-86
2022/01/06 10:47:32;;;;;;;9.87;5.83;;;1.40;99.90;;;;;;4938883;29;20214;-84
2022/01/06 10:50:18;;;;;;;13.23;5.60;;;1.40;99.90;;;;;;4951049;29;20232;-86
2022/01/06 10:52:48;;;;;;;13.77;5.60;;;1.30;99.90;;;;;;4942735;29;20260;-87
2022/01/06 10:55:50;;;;;;;13.97;5.40;;;1.40;99.90;;;;;;4946618;29;20189;-89
2022/01/06 11:01:17;;;;;;;11.23;3.23;;;1.40;99.90;;;;;;4943747;29;20203;-93
2022/01/06 11:03:48;;;;;;;51.60;16.03;;;1.40;99.90;;;;;;4939553;29;20228;-87
2022/01/06 11:06:15;;;;;;;9.37;3.27;;;1.40;99.90;;;;;;4939825;29;20196;-87
2022/01/06 11:18:25;;;;;;;10.10;6.47;;;1.60;99.90;;;;;;4936839;29;20196;-90
2022/01/06 11:21:04;;;;;;;22.13;11.93;;;1.60;99.90;;;;;;4948817;29;20200;-89
2022/01/06 11:23:34;;;;;;;9.70;4.90;;;1.70;99.90;;;;;;4948802;28;20605;-91
2022/01/06 11:26:06;;;;;;;155.30;54.83;;;1.90;99.90;;;;;;4952972;28;20576;-90
2022/01/06 11:28:34;;;;;;;5.57;3.37;;;2.00;99.90;;;;;;4966239;29;20215;-87
2022/01/06 11:31:15;;;;;;;15.10;7.23;;;2.00;99.90;;;;;;4963187;29;20204;-89
2022/01/06 11:33:46;;;;;;;2.70;1.80;;;2.10;99.90;;;;;;4966355;29;20198;-89
2022/01/06 11:36:21;;;;;;;2.13;1.17;;;2.20;99.90;;;;;;4968776;29;20538;-89
2022/01/06 11:38:50;;;;;;;7.83;2.20;;;2.30;99.90;;;;;;4967302;29;20192;-89
2022/01/06 11:41:35;;;;;;;3.27;1.97;;;2.30;99.90;;;;;;4972972;29;20196;-90
2022/01/06 12:48:01;;;;;;;3.93;1.87;;;2.10;99.90;;;;;;4927131;29;20269;-89
2022/01/06 12:50:28;;;;;;;7.77;3.73;;;2.00;99.90;;;;;;4940961;29;20202;-90
2022/01/06 12:53:07;;;;;;;5.40;2.90;;;2.00;99.90;;;;;;4938523;29;20283;-91
2022/01/06 12:55:42;;;;;;;5.77;2.13;;;1.90;99.90;;;;;;4938488;29;20180;-88
2022/01/06 12:58:09;;;;;;;4.10;2.30;;;1.80;99.90;;;;;;4937913;29;20259;-89
2022/01/06 13:00:52;;;;;;;6.40;2.93;;;1.80;99.90;;;;;;4941776;29;20204;-90
2022/01/06 13:03:36;;;;;;;5.87;1.87;;;1.70;99.90;;;;;;4943402;29;20228;-91
2022/01/06 13:06:20;;;;;;;2.83;1.50;;;1.60;99.90;;;;;;4940259;29;20173;-91
2022/01/06 13:08:58;;;;;;;5.53;3.20;;;1.60;99.90;;;;;;4946289;28;20177;-91
2022/01/06 13:11:57;;;;;;;7.80;3.13;;;1.50;99.90;;;;;;4938090;29;20204;-93
2022/01/06 13:14:30;;;;;;;4.77;3.33;;;1.50;99.90;;;;;;4942935;29;20636;-89
2022/01/06 13:17:22;;;;;;;7.43;3.23;;;1.40;99.90;;;;;;4940629;29;20248;-89
2022/01/06 13:20:19;;;;;;;3.03;1.97;;;1.40;99.90;;;;;;4950625;29;20249;-90
2022/01/06 13:25:44;;;;;;;3.70;1.93;;;1.30;99.90;;;;;;4956203;29;20176;-89
2022/01/06 13:28:22;;;;;;;2.97;1.40;;;1.30;99.90;;;;;;4959461;29;20208;-88
2022/01/06 13:30:51;;;;;;;3.97;1.63;;;1.30;99.90;;;;;;4938596;29;20200;-91
2022/01/06 13:33:31;;;;;;;3.77;1.60;;;1.20;99.90;;;;;;4940392;28;20193;-90
2022/01/06 13:36:28;;;;;;;9.03;3.70;;;1.20;99.90;;;;;;4938358;29;20699;-90
2022/01/06 13:39:14;;;;;;;2.97;1.90;;;1.20;99.90;;;;;;4944226;29;20635;-91
2022/01/06 13:42:11;;;;;;;10.93;3.97;;;1.10;99.90;;;;;;4942356;29;20255;-90
2022/01/06 13:45:15;;;;;;;9.50;3.97;;;1.00;99.90;;;;;;4931058;29;20267;-90
2022/01/06 13:48:35;;;;;;;22.60;9.23;;;1.00;99.90;;;;;;4937303;29;20698;-91
2022/01/06 13:51:18;;;;;;;6.10;3.73;;;1.00;99.90;;;;;;4924373;29;20200;-91
2022/01/06 13:54:11;;;;;;;3.60;2.03;;;0.90;99.90;;;;;;4926486;29;20213;-91
2022/01/06 13:56:38;;;;;;;7.00;2.07;;;0.90;99.90;;;;;;4917456;29;20260;-89
2022/01/06 13:59:14;;;;;;;2.17;1.70;;;0.90;99.90;;;;;;4926700;29;20241;-92
2022/01/06 14:01:59;;;;;;;3.37;2.00;;;0.80;99.90;;;;;;4941411;29;20192;-92
2022/01/06 14:04:33;;;;;;;7.83;4.53;;;0.80;99.90;;;;;;4940068;28;20200;-90
2022/01/06 14:07:00;;;;;;;6.43;2.30;;;0.80;99.90;;;;;;4940214;29;20180;-87
2022/01/06 14:09:29;;;;;;;5.00;2.97;;;0.70;99.90;;;;;;4945093;29;20203;-88
2022/01/06 14:11:57;;;;;;;4.67;2.30;;;0.70;99.90;;;;;;4957340;29;20204;-90
2022/01/06 14:14:24;;;;;;;4.03;2.60;;;0.70;99.90;;;;;;4956130;29;20654;-88
2022/01/06 14:16:52;;;;;;;2.63;1.40;;;0.60;99.90;;;;;;4954770;29;20650;-88
2022/01/06 14:19:19;;;;;;;4.23;1.70;;;0.60;99.90;;;;;;4937143;29;20214;-91
2022/01/06 14:21:49;;;;;;;2.57;1.33;;;0.60;99.90;;;;;;4942844;29;20212;-91
2022/01/06 14:24:16;;;;;;;3.20;1.50;;;0.60;99.90;;;;;;4939229;29;20236;-89
2022/01/06 14:26:44;;;;;;;3.33;1.60;;;0.50;99.90;;;;;;4943659;28;20260;-90
2022/01/06 14:29:11;;;;;;;3.73;1.50;;;0.50;99.90;;;;;;4955092;29;20210;-88
2022/01/06 14:31:38;;;;;;;2.80;1.30;;;0.40;99.90;;;;;;4958956;29;20200;-89
2022/01/06 14:34:05;;;;;;;3.23;1.63;;;0.40;99.90;;;;;;4936048;29;20248;-89
2022/01/06 14:37:02;;;;;;;4.17;1.43;;;0.30;99.90;;;;;;4939499;29;20196;-91
2022/01/06 14:40:11;;;;;;;3.63;1.70;;;0.30;99.90;;;;;;4961309;29;20349;-91
2022/01/06 14:43:03;;;;;;;3.07;1.80;;;0.20;99.90;;;;;;4959496;29;20240;-92
2022/01/06 14:51:37;;;;;;;2.73;1.70;;;0.10;99.90;;;;;;4953555;28;20234;-92
2022/01/06 14:54:04;;;;;;;4.23;1.70;;;0.00;99.90;;;;;;4958141;29;20196;-89
2022/01/06 14:56:32;;;;;;;3.30;1.50;;;0.00;99.90;;;;;;4954956;29;20192;-90
2022/01/06 14:59:01;;;;;;;2.77;1.60;;;-0.10;99.90;;;;;;4938217;29;20195;-89
2022/01/06 15:01:28;;;;;;;4.77;2.10;;;-0.10;99.90;;;;;;4935963;29;20196;-88
2022/01/06 15:03:55;;;;;;;4.07;1.87;;;-0.20;99.90;;;;;;4935907;29;20220;-89
2022/01/06 15:06:22;;;;;;;3.47;2.33;;;-0.20;99.90;;;;;;4936133;29;20204;-89
2022/01/06 15:08:49;;;;;;;6.37;1.87;;;-0.30;99.90;;;;;;4950668;29;20196;-89
2022/01/06 15:11:16;;;;;;;4.83;2.30;;;-0.30;99.90;;;;;;4955204;29;20275;-90
2022/01/06 15:13:43;;;;;;;5.40;1.87;;;-0.40;99.90;;;;;;4958568;29;20196;-90
2022/01/06 15:16:12;;;;;;;4.17;2.10;;;-0.40;99.90;;;;;;4949266;29;20207;-89
2022/01/06 15:18:39;;;;;;;5.90;2.50;;;-0.50;99.90;;;;;;4936601;29;20203;-90
2022/01/06 15:21:06;;;;;;;9.80;3.63;;;-0.50;99.90;;;;;;4935892;29;20651;-89
2022/01/06 15:23:33;;;;;;;7.63;3.20;;;-0.60;99.90;;;;;;4937063;29;20213;-90
2022/01/06 15:26:00;;;;;;;7.20;3.60;;;-0.60;99.90;;;;;;4934364;29;20192;-89
2022/01/06 15:28:27;;;;;;;12.23;7.17;;;-0.70;99.90;;;;;;4928286;29;20201;-89
2022/01/06 15:30:54;;;;;;;11.77;5.80;;;-0.70;99.90;;;;;;4937361;29;20679;-91
2022/01/06 15:33:23;;;;;;;8.70;5.50;;;-0.70;99.90;;;;;;4937823;29;20557;-89
2022/01/06 15:35:53;;;;;;;7.17;4.10;;;-0.80;99.90;;;;;;4937667;29;20204;-91
2022/01/06 15:38:20;;;;;;;8.33;4.00;;;-0.80;99.90;;;;;;4935363;29;20643;-91
2022/01/06 15:40:48;;;;;;;9.30;3.60;;;-0.90;99.90;;;;;;4935667;29;20291;-90
2022/01/06 15:43:15;;;;;;;10.80;5.20;;;-1.00;99.90;;;;;;4941097;29;20219;-89
2022/01/06 15:45:45;;;;;;;19.97;11.47;;;-1.00;99.90;;;;;;4940149;29;20565;-91
2022/01/06 15:48:13;;;;;;;17.80;8.50;;;-1.10;99.90;;;;;;4934935;29;20228;-89
2022/01/06 15:50:42;;;;;;;32.00;14.17;;;-1.10;99.90;;;;;;4937690;29;20240;-89
2022/01/06 15:53:10;;;;;;;25.53;13.37;;;-1.20;99.90;;;;;;4936472;29;20271;-90
2022/01/06 15:55:38;;;;;;;21.13;9.47;;;-1.20;99.90;;;;;;4935834;29;20196;-90
2022/01/06 15:58:05;;;;;;;33.17;13.20;;;-1.30;99.90;;;;;;4936655;29;20208;-89
2022/01/06 16:00:47;;;;;;;20.23;9.20;;;-1.30;99.90;;;;;;4938817;29;20189;-89
2022/01/06 16:06:01;;;;;;;22.13;11.00;;;-1.40;99.90;;;;;;4919779;29;20700;-91
2022/01/06 16:08:29;;;;;;;13.43;7.60;;;-1.50;99.90;;;;;;4925220;29;20209;-92
2022/01/06 16:11:00;;;;;;;23.47;11.63;;;-1.50;99.90;;;;;;4938804;29;20197;-93
2022/01/06 16:13:28;;;;;;;32.53;16.57;;;-1.50;99.90;;;;;;4972341;29;20247;-89
2022/01/06 16:15:56;;;;;;;23.97;10.57;;;-1.50;99.90;;;;;;4971352;29;20204;-88
2022/01/06 16:18:25;;;;;;;14.47;8.07;;;-1.50;99.90;;;;;;4972077;29;20211;-91
2022/01/06 16:20:54;;;;;;;9.30;6.13;;;-1.60;99.90;;;;;;4966073;29;20189;-91
2022/01/06 16:23:24;;;;;;;6.63;3.70;;;-1.60;99.90;;;;;;4948793;29;20326;-90
2022/01/06 16:25:53;;;;;;;13.77;4.00;;;-1.60;99.90;;;;;;4949487;29;20212;-91
2022/01/06 16:28:21;;;;;;;11.17;4.50;;;-1.60;99.90;;;;;;4949567;29;20284;-90
2022/01/06 16:31:09;;;;;;;8.67;3.10;;;-1.70;99.90;;;;;;4950652;29;20204;-89
2022/01/06 16:33:37;;;;;;;12.93;4.43;;;-1.70;99.90;;;;;;4951676;29;20216;-89
2022/01/06 16:36:05;;;;;;;11.10;4.17;;;-1.70;99.90;;;;;;4953436;29;20200;-89
2022/01/06 16:38:40;;;;;;;8.30;3.10;;;-1.70;99.90;;;;;;4950344;29;20197;-90
2022/01/06 16:41:09;;;;;;;8.27;3.50;;;-1.70;99.90;;;;;;4948833;29;20220;-91
2022/01/06 16:43:36;;;;;;;6.20;2.27;;;-1.70;99.90;;;;;;4949830;29;20251;-90